sensor_id;sensor_type;location;lat;lon;timestamp;P1;durP1;ratioP1;P2;durP2;ratioP2
34565;SDS011;20803;42.676;26.348;2022-11-06T00:00:40;18.50;;;9.93;;
34565;SDS011;20803;42.676;26.348;2022-11-06T00:03:06;19.50;;;9.70;;
34565;SDS011;20803;42.676;26.348;2022-11-06T00:05:32;18.33;;;9.50;;
34565;SDS011;20803;42.676;26.348;2022-11-06T00:08:24;20.27;;;10.37;;
34565;SDS011;20803;42.676;26.348;2022-11-06T00:10:51;17.07;;;9.27;;
34565;SDS011;20803;42.676;26.348;2022-11-06T00:13:17;14.27;;;8.97;;
34565;SDS011;20803;42.676;26.348;2022-11-06T00:15:42;15.57;;;9.53;;
34565;SDS011;20803;42.676;26.348;2022-11-06T00:18:08;20.57;;;9.70;;
34565;SDS011;20803;42.676;26.348;2022-11-06T00:20:33;15.50;;;9.67;;
34565;SDS011;20803;42.676;26.348;2022-11-06T00:22:59;17.47;;;9.20;;
34565;SDS011;20803;42.676;26.348;2022-11-06T00:25:24;17.17;;;8.87;;
34565;SDS011;20803;42.676;26.348;2022-11-06T00:27:50;22.00;;;9.77;;
34565;SDS011;20803;42.676;26.348;2022-11-06T00:30:15;18.63;;;9.47;;
34565;SDS011;20803;42.676;26.348;2022-11-06T00:32:43;17.97;;;9.63;;
34565;SDS011;20803;42.676;26.348;2022-11-06T00:35:09;17.63;;;9.27;;
34565;SDS011;20803;42.676;26.348;2022-11-06T00:37:34;14.23;;;8.80;;
34565;SDS011;20803;42.676;26.348;2022-11-06T00:39:59;17.57;;;9.03;;
34565;SDS011;20803;42.676;26.348;2022-11-06T00:42:25;14.53;;;9.40;;
34565;SDS011;20803;42.676;26.348;2022-11-06T00:44:51;16.30;;;7.90;;
34565;SDS011;20803;42.676;26.348;2022-11-06T00:47:16;15.33;;;8.20;;
34565;SDS011;20803;42.676;26.348;2022-11-06T00:49:41;16.40;;;8.20;;
34565;SDS011;20803;42.676;26.348;2022-11-06T00:52:07;12.57;;;8.70;;
34565;SDS011;20803;42.676;26.348;2022-11-06T00:54:32;14.60;;;8.47;;
34565;SDS011;20803;42.676;26.348;2022-11-06T00:56:58;23.23;;;9.93;;
34565;SDS011;20803;42.676;26.348;2022-11-06T00:59:23;15.87;;;9.90;;
34565;SDS011;20803;42.676;26.348;2022-11-06T01:01:48;20.73;;;9.73;;
34565;SDS011;20803;42.676;26.348;2022-11-06T01:04:18;18.70;;;8.13;;
34565;SDS011;20803;42.676;26.348;2022-11-06T01:06:46;19.77;;;9.33;;
34565;SDS011;20803;42.676;26.348;2022-11-06T01:09:14;11.57;;;7.90;;
34565;SDS011;20803;42.676;26.348;2022-11-06T01:11:44;14.37;;;7.93;;
34565;SDS011;20803;42.676;26.348;2022-11-06T01:14:11;14.17;;;7.63;;
34565;SDS011;20803;42.676;26.348;2022-11-06T01:16:38;13.50;;;7.70;;
34565;SDS011;20803;42.676;26.348;2022-11-06T01:19:04;16.17;;;8.87;;
34565;SDS011;20803;42.676;26.348;2022-11-06T01:21:31;12.53;;;8.17;;
34565;SDS011;20803;42.676;26.348;2022-11-06T01:24:03;16.70;;;8.70;;
34565;SDS011;20803;42.676;26.348;2022-11-06T01:26:35;18.57;;;10.77;;
34565;SDS011;20803;42.676;26.348;2022-11-06T01:29:01;13.77;;;8.57;;
34565;SDS011;20803;42.676;26.348;2022-11-06T01:31:28;15.97;;;8.63;;
34565;SDS011;20803;42.676;26.348;2022-11-06T01:33:56;18.10;;;8.80;;
34565;SDS011;20803;42.676;26.348;2022-11-06T01:36:23;20.20;;;9.13;;
34565;SDS011;20803;42.676;26.348;2022-11-06T01:38:50;20.37;;;10.33;;
34565;SDS011;20803;42.676;26.348;2022-11-06T01:41:24;21.37;;;8.87;;
34565;SDS011;20803;42.676;26.348;2022-11-06T01:44:00;18.33;;;9.50;;
34565;SDS011;20803;42.676;26.348;2022-11-06T01:46:29;14.43;;;8.73;;
34565;SDS011;20803;42.676;26.348;2022-11-06T01:48:58;15.83;;;7.53;;
34565;SDS011;20803;42.676;26.348;2022-11-06T01:51:29;13.83;;;8.57;;
34565;SDS011;20803;42.676;26.348;2022-11-06T01:54:13;13.00;;;7.27;;
34565;SDS011;20803;42.676;26.348;2022-11-06T01:56:39;15.80;;;8.30;;
34565;SDS011;20803;42.676;26.348;2022-11-06T01:59:08;12.53;;;7.30;;
34565;SDS011;20803;42.676;26.348;2022-11-06T02:01:37;13.00;;;7.20;;
34565;SDS011;20803;42.676;26.348;2022-11-06T02:06:48;14.03;;;7.73;;
34565;SDS011;20803;42.676;26.348;2022-11-06T02:09:14;13.27;;;7.03;;
34565;SDS011;20803;42.676;26.348;2022-11-06T02:11:41;18.73;;;8.30;;
34565;SDS011;20803;42.676;26.348;2022-11-06T02:16:56;15.53;;;7.77;;
34565;SDS011;20803;42.676;26.348;2022-11-06T02:27:23;19.00;;;8.77;;
34565;SDS011;20803;42.676;26.348;2022-11-06T02:30:02;15.63;;;8.83;;
34565;SDS011;20803;42.676;26.348;2022-11-06T02:35:00;15.47;;;8.90;;
34565;SDS011;20803;42.676;26.348;2022-11-06T02:37:34;18.37;;;7.50;;
34565;SDS011;20803;42.676;26.348;2022-11-06T02:40:03;11.20;;;6.87;;
34565;SDS011;20803;42.676;26.348;2022-11-06T02:42:32;15.87;;;7.60;;
34565;SDS011;20803;42.676;26.348;2022-11-06T02:45:02;20.00;;;9.40;;
34565;SDS011;20803;42.676;26.348;2022-11-06T02:47:31;13.60;;;7.00;;
34565;SDS011;20803;42.676;26.348;2022-11-06T02:50:06;12.70;;;6.80;;
34565;SDS011;20803;42.676;26.348;2022-11-06T02:52:44;19.30;;;9.20;;
34565;SDS011;20803;42.676;26.348;2022-11-06T02:55:17;20.00;;;9.97;;
34565;SDS011;20803;42.676;26.348;2022-11-06T02:58:08;16.70;;;9.70;;
34565;SDS011;20803;42.676;26.348;2022-11-06T03:00:37;16.93;;;8.90;;
34565;SDS011;20803;42.676;26.348;2022-11-06T03:03:09;19.47;;;8.07;;
34565;SDS011;20803;42.676;26.348;2022-11-06T03:05:51;13.87;;;9.10;;
34565;SDS011;20803;42.676;26.348;2022-11-06T03:08:33;16.00;;;9.07;;
34565;SDS011;20803;42.676;26.348;2022-11-06T03:11:21;15.27;;;9.00;;
34565;SDS011;20803;42.676;26.348;2022-11-06T03:13:55;21.27;;;9.70;;
34565;SDS011;20803;42.676;26.348;2022-11-06T03:19:11;21.00;;;9.30;;
34565;SDS011;20803;42.676;26.348;2022-11-06T03:24:49;16.40;;;9.30;;
34565;SDS011;20803;42.676;26.348;2022-11-06T03:27:18;19.17;;;9.20;;
34565;SDS011;20803;42.676;26.348;2022-11-06T03:30:09;22.37;;;10.30;;
34565;SDS011;20803;42.676;26.348;2022-11-06T03:32:37;15.07;;;9.20;;
34565;SDS011;20803;42.676;26.348;2022-11-06T03:37:41;20.63;;;9.73;;
34565;SDS011;20803;42.676;26.348;2022-11-06T03:40:14;17.27;;;10.57;;
34565;SDS011;20803;42.676;26.348;2022-11-06T03:42:43;20.03;;;11.47;;
34565;SDS011;20803;42.676;26.348;2022-11-06T03:45:14;20.87;;;10.40;;
34565;SDS011;20803;42.676;26.348;2022-11-06T03:53:11;19.33;;;9.47;;
34565;SDS011;20803;42.676;26.348;2022-11-06T03:55:42;17.93;;;9.97;;
34565;SDS011;20803;42.676;26.348;2022-11-06T03:58:14;23.43;;;9.97;;
34565;SDS011;20803;42.676;26.348;2022-11-06T04:00:44;17.93;;;10.30;;
34565;SDS011;20803;42.676;26.348;2022-11-06T04:03:33;22.57;;;10.83;;
34565;SDS011;20803;42.676;26.348;2022-11-06T04:08:38;17.20;;;10.13;;
34565;SDS011;20803;42.676;26.348;2022-11-06T04:11:23;19.67;;;10.80;;
34565;SDS011;20803;42.676;26.348;2022-11-06T04:14:10;15.63;;;10.37;;
34565;SDS011;20803;42.676;26.348;2022-11-06T04:16:40;19.37;;;10.73;;
34565;SDS011;20803;42.676;26.348;2022-11-06T04:19:14;18.90;;;10.37;;
34565;SDS011;20803;42.676;26.348;2022-11-06T04:24:41;19.30;;;11.00;;
34565;SDS011;20803;42.676;26.348;2022-11-06T04:27:43;20.77;;;11.27;;
34565;SDS011;20803;42.676;26.348;2022-11-06T04:30:17;16.90;;;11.57;;
34565;SDS011;20803;42.676;26.348;2022-11-06T04:38:22;22.60;;;10.97;;
34565;SDS011;20803;42.676;26.348;2022-11-06T04:46:27;21.57;;;12.20;;
34565;SDS011;20803;42.676;26.348;2022-11-06T04:48:56;15.47;;;11.27;;
34565;SDS011;20803;42.676;26.348;2022-11-06T04:51:23;22.67;;;10.97;;
34565;SDS011;20803;42.676;26.348;2022-11-06T04:53:54;17.93;;;11.23;;
34565;SDS011;20803;42.676;26.348;2022-11-06T04:56:21;22.73;;;10.43;;
34565;SDS011;20803;42.676;26.348;2022-11-06T04:58:50;17.37;;;11.20;;
34565;SDS011;20803;42.676;26.348;2022-11-06T05:01:16;20.20;;;11.33;;
34565;SDS011;20803;42.676;26.348;2022-11-06T05:03:41;16.27;;;10.47;;
34565;SDS011;20803;42.676;26.348;2022-11-06T05:06:07;22.73;;;11.70;;
34565;SDS011;20803;42.676;26.348;2022-11-06T05:08:32;20.90;;;10.93;;
34565;SDS011;20803;42.676;26.348;2022-11-06T05:10:58;24.63;;;11.30;;
34565;SDS011;20803;42.676;26.348;2022-11-06T05:13:23;17.23;;;11.27;;
34565;SDS011;20803;42.676;26.348;2022-11-06T05:15:53;19.43;;;11.10;;
34565;SDS011;20803;42.676;26.348;2022-11-06T05:18:23;24.77;;;12.53;;
34565;SDS011;20803;42.676;26.348;2022-11-06T05:20:50;19.00;;;11.93;;
34565;SDS011;20803;42.676;26.348;2022-11-06T05:23:38;16.47;;;11.70;;
34565;SDS011;20803;42.676;26.348;2022-11-06T05:26:04;17.50;;;11.00;;
34565;SDS011;20803;42.676;26.348;2022-11-06T05:28:30;19.20;;;11.73;;
34565;SDS011;20803;42.676;26.348;2022-11-06T05:30:56;15.03;;;10.83;;
34565;SDS011;20803;42.676;26.348;2022-11-06T05:33:21;15.30;;;10.40;;
34565;SDS011;20803;42.676;26.348;2022-11-06T05:35:47;24.40;;;11.70;;
34565;SDS011;20803;42.676;26.348;2022-11-06T05:38:13;16.77;;;11.00;;
34565;SDS011;20803;42.676;26.348;2022-11-06T05:40:38;16.00;;;12.07;;
34565;SDS011;20803;42.676;26.348;2022-11-06T05:43:04;16.63;;;11.13;;
34565;SDS011;20803;42.676;26.348;2022-11-06T05:45:29;20.17;;;11.37;;
34565;SDS011;20803;42.676;26.348;2022-11-06T05:47:55;18.03;;;11.40;;
34565;SDS011;20803;42.676;26.348;2022-11-06T05:50:20;21.97;;;12.30;;
34565;SDS011;20803;42.676;26.348;2022-11-06T05:52:46;21.27;;;12.70;;
34565;SDS011;20803;42.676;26.348;2022-11-06T05:55:11;15.43;;;11.53;;
34565;SDS011;20803;42.676;26.348;2022-11-06T05:57:37;21.93;;;12.40;;
34565;SDS011;20803;42.676;26.348;2022-11-06T06:00:03;18.07;;;12.10;;
34565;SDS011;20803;42.676;26.348;2022-11-06T06:02:29;22.10;;;11.53;;
34565;SDS011;20803;42.676;26.348;2022-11-06T06:04:54;20.63;;;12.37;;
34565;SDS011;20803;42.676;26.348;2022-11-06T06:07:20;23.40;;;13.50;;
34565;SDS011;20803;42.676;26.348;2022-11-06T06:09:45;22.40;;;12.20;;
34565;SDS011;20803;42.676;26.348;2022-11-06T06:12:11;26.93;;;13.73;;
34565;SDS011;20803;42.676;26.348;2022-11-06T06:14:37;27.17;;;13.60;;
34565;SDS011;20803;42.676;26.348;2022-11-06T06:17:03;23.13;;;14.40;;
34565;SDS011;20803;42.676;26.348;2022-11-06T06:19:28;23.87;;;12.40;;
34565;SDS011;20803;42.676;26.348;2022-11-06T06:21:55;24.60;;;13.83;;
34565;SDS011;20803;42.676;26.348;2022-11-06T06:24:20;24.43;;;13.63;;
34565;SDS011;20803;42.676;26.348;2022-11-06T06:26:46;29.30;;;12.30;;
34565;SDS011;20803;42.676;26.348;2022-11-06T06:29:12;29.17;;;11.90;;
34565;SDS011;20803;42.676;26.348;2022-11-06T06:31:37;21.93;;;12.53;;
34565;SDS011;20803;42.676;26.348;2022-11-06T06:34:03;23.53;;;11.83;;
34565;SDS011;20803;42.676;26.348;2022-11-06T06:36:28;32.87;;;12.80;;
34565;SDS011;20803;42.676;26.348;2022-11-06T06:38:54;21.57;;;13.53;;
34565;SDS011;20803;42.676;26.348;2022-11-06T06:41:19;22.37;;;13.87;;
34565;SDS011;20803;42.676;26.348;2022-11-06T06:43:48;30.40;;;14.97;;
34565;SDS011;20803;42.676;26.348;2022-11-06T06:46:14;26.63;;;12.90;;
34565;SDS011;20803;42.676;26.348;2022-11-06T06:48:39;23.23;;;14.27;;
34565;SDS011;20803;42.676;26.348;2022-11-06T06:51:05;18.53;;;11.93;;
34565;SDS011;20803;42.676;26.348;2022-11-06T06:53:32;26.63;;;13.60;;
34565;SDS011;20803;42.676;26.348;2022-11-06T06:55:58;19.60;;;13.70;;
34565;SDS011;20803;42.676;26.348;2022-11-06T06:58:25;25.03;;;13.30;;
34565;SDS011;20803;42.676;26.348;2022-11-06T07:00:50;22.30;;;13.00;;
34565;SDS011;20803;42.676;26.348;2022-11-06T07:03:16;23.93;;;14.10;;
34565;SDS011;20803;42.676;26.348;2022-11-06T07:05:41;29.57;;;13.07;;
34565;SDS011;20803;42.676;26.348;2022-11-06T07:08:07;27.63;;;14.63;;
34565;SDS011;20803;42.676;26.348;2022-11-06T07:10:32;21.10;;;14.03;;
34565;SDS011;20803;42.676;26.348;2022-11-06T07:13:02;19.20;;;13.77;;
34565;SDS011;20803;42.676;26.348;2022-11-06T07:15:27;29.03;;;15.13;;
34565;SDS011;20803;42.676;26.348;2022-11-06T07:17:53;27.07;;;17.47;;
34565;SDS011;20803;42.676;26.348;2022-11-06T07:20:18;20.67;;;14.60;;
34565;SDS011;20803;42.676;26.348;2022-11-06T07:22:43;24.60;;;15.33;;
34565;SDS011;20803;42.676;26.348;2022-11-06T07:25:09;29.07;;;16.03;;
34565;SDS011;20803;42.676;26.348;2022-11-06T07:27:34;33.83;;;15.63;;
34565;SDS011;20803;42.676;26.348;2022-11-06T07:30:00;27.83;;;16.57;;
34565;SDS011;20803;42.676;26.348;2022-11-06T07:32:25;31.70;;;17.13;;
34565;SDS011;20803;42.676;26.348;2022-11-06T07:34:51;27.17;;;17.97;;
34565;SDS011;20803;42.676;26.348;2022-11-06T07:37:17;29.47;;;16.97;;
34565;SDS011;20803;42.676;26.348;2022-11-06T07:39:42;28.30;;;18.50;;
34565;SDS011;20803;42.676;26.348;2022-11-06T07:42:08;65.63;;;32.53;;
34565;SDS011;20803;42.676;26.348;2022-11-06T07:44:33;84.60;;;39.17;;
34565;SDS011;20803;42.676;26.348;2022-11-06T07:46:59;40.23;;;22.73;;
34565;SDS011;20803;42.676;26.348;2022-11-06T07:49:24;35.20;;;21.13;;
34565;SDS011;20803;42.676;26.348;2022-11-06T07:51:50;30.13;;;18.23;;
34565;SDS011;20803;42.676;26.348;2022-11-06T07:54:15;29.77;;;18.87;;
34565;SDS011;20803;42.676;26.348;2022-11-06T07:56:40;32.97;;;18.13;;
34565;SDS011;20803;42.676;26.348;2022-11-06T07:59:06;37.77;;;18.37;;
34565;SDS011;20803;42.676;26.348;2022-11-06T08:01:31;27.93;;;17.33;;
34565;SDS011;20803;42.676;26.348;2022-11-06T08:03:57;25.27;;;15.83;;
34565;SDS011;20803;42.676;26.348;2022-11-06T08:06:22;32.87;;;15.20;;
34565;SDS011;20803;42.676;26.348;2022-11-06T08:08:47;17.90;;;13.10;;
34565;SDS011;20803;42.676;26.348;2022-11-06T08:11:13;21.57;;;10.37;;
34565;SDS011;20803;42.676;26.348;2022-11-06T08:13:38;42.33;;;16.30;;
34565;SDS011;20803;42.676;26.348;2022-11-06T08:16:05;27.00;;;13.60;;
34565;SDS011;20803;42.676;26.348;2022-11-06T08:18:32;32.77;;;15.23;;
34565;SDS011;20803;42.676;26.348;2022-11-06T08:20:58;29.43;;;14.53;;
34565;SDS011;20803;42.676;26.348;2022-11-06T08:23:23;19.97;;;11.40;;
34565;SDS011;20803;42.676;26.348;2022-11-06T08:25:51;19.03;;;10.53;;
34565;SDS011;20803;42.676;26.348;2022-11-06T08:28:18;22.57;;;11.60;;
34565;SDS011;20803;42.676;26.348;2022-11-06T08:30:43;19.40;;;11.03;;
34565;SDS011;20803;42.676;26.348;2022-11-06T08:33:09;21.33;;;11.13;;
34565;SDS011;20803;42.676;26.348;2022-11-06T08:35:35;20.47;;;9.80;;
34565;SDS011;20803;42.676;26.348;2022-11-06T08:38:01;17.47;;;9.87;;
34565;SDS011;20803;42.676;26.348;2022-11-06T08:40:27;18.37;;;10.50;;
34565;SDS011;20803;42.676;26.348;2022-11-06T08:42:57;19.13;;;10.40;;
34565;SDS011;20803;42.676;26.348;2022-11-06T08:45:26;19.23;;;10.90;;
34565;SDS011;20803;42.676;26.348;2022-11-06T08:47:52;21.07;;;10.67;;
34565;SDS011;20803;42.676;26.348;2022-11-06T08:50:17;20.50;;;10.93;;
34565;SDS011;20803;42.676;26.348;2022-11-06T08:52:43;20.73;;;11.97;;
34565;SDS011;20803;42.676;26.348;2022-11-06T08:55:08;19.93;;;10.10;;
34565;SDS011;20803;42.676;26.348;2022-11-06T08:57:34;17.60;;;9.53;;
34565;SDS011;20803;42.676;26.348;2022-11-06T08:59:59;15.53;;;9.10;;
34565;SDS011;20803;42.676;26.348;2022-11-06T09:02:24;19.43;;;9.87;;
34565;SDS011;20803;42.676;26.348;2022-11-06T09:04:50;18.90;;;10.00;;
34565;SDS011;20803;42.676;26.348;2022-11-06T09:07:16;18.40;;;10.57;;
34565;SDS011;20803;42.676;26.348;2022-11-06T09:09:42;21.33;;;10.63;;
34565;SDS011;20803;42.676;26.348;2022-11-06T09:12:07;17.60;;;10.87;;
34565;SDS011;20803;42.676;26.348;2022-11-06T09:14:33;16.37;;;10.23;;
34565;SDS011;20803;42.676;26.348;2022-11-06T09:16:59;19.33;;;10.23;;
34565;SDS011;20803;42.676;26.348;2022-11-06T09:19:24;18.53;;;11.30;;
34565;SDS011;20803;42.676;26.348;2022-11-06T09:21:50;20.63;;;12.13;;
34565;SDS011;20803;42.676;26.348;2022-11-06T09:24:15;21.13;;;10.57;;
34565;SDS011;20803;42.676;26.348;2022-11-06T09:26:40;19.90;;;10.80;;
34565;SDS011;20803;42.676;26.348;2022-11-06T09:29:06;17.90;;;9.60;;
34565;SDS011;20803;42.676;26.348;2022-11-06T09:31:31;15.53;;;9.43;;
34565;SDS011;20803;42.676;26.348;2022-11-06T09:33:57;20.27;;;10.90;;
34565;SDS011;20803;42.676;26.348;2022-11-06T09:36:22;21.27;;;11.37;;
34565;SDS011;20803;42.676;26.348;2022-11-06T09:38:48;17.40;;;9.80;;
34565;SDS011;20803;42.676;26.348;2022-11-06T09:41:17;21.50;;;10.63;;
34565;SDS011;20803;42.676;26.348;2022-11-06T09:46:44;17.43;;;9.90;;
34565;SDS011;20803;42.676;26.348;2022-11-06T09:49:15;17.03;;;10.50;;
34565;SDS011;20803;42.676;26.348;2022-11-06T09:51:57;16.13;;;9.20;;
34565;SDS011;20803;42.676;26.348;2022-11-06T09:54:41;15.47;;;9.63;;
34565;SDS011;20803;42.676;26.348;2022-11-06T09:57:20;14.97;;;9.93;;
34565;SDS011;20803;42.676;26.348;2022-11-06T09:59:53;22.43;;;9.60;;
34565;SDS011;20803;42.676;26.348;2022-11-06T10:02:29;18.30;;;9.60;;
34565;SDS011;20803;42.676;26.348;2022-11-06T10:07:37;17.63;;;9.43;;
34565;SDS011;20803;42.676;26.348;2022-11-06T10:10:06;21.13;;;9.37;;
34565;SDS011;20803;42.676;26.348;2022-11-06T10:15:21;29.00;;;10.80;;
34565;SDS011;20803;42.676;26.348;2022-11-06T10:20:31;18.60;;;10.00;;
34565;SDS011;20803;42.676;26.348;2022-11-06T10:23:17;15.70;;;9.97;;
34565;SDS011;20803;42.676;26.348;2022-11-06T10:25:52;18.80;;;9.77;;
34565;SDS011;20803;42.676;26.348;2022-11-06T10:34:27;18.03;;;10.37;;
34565;SDS011;20803;42.676;26.348;2022-11-06T10:37:07;14.23;;;8.07;;
34565;SDS011;20803;42.676;26.348;2022-11-06T10:39:39;19.70;;;10.30;;
34565;SDS011;20803;42.676;26.348;2022-11-06T10:42:08;21.93;;;9.67;;
34565;SDS011;20803;42.676;26.348;2022-11-06T10:47:39;19.43;;;8.87;;
34565;SDS011;20803;42.676;26.348;2022-11-06T10:50:11;16.87;;;9.23;;
34565;SDS011;20803;42.676;26.348;2022-11-06T11:00:28;22.07;;;8.83;;
34565;SDS011;20803;42.676;26.348;2022-11-06T11:02:55;14.77;;;8.67;;
34565;SDS011;20803;42.676;26.348;2022-11-06T11:05:23;16.27;;;7.47;;
34565;SDS011;20803;42.676;26.348;2022-11-06T11:07:51;14.43;;;6.67;;
34565;SDS011;20803;42.676;26.348;2022-11-06T11:10:27;15.90;;;7.73;;
34565;SDS011;20803;42.676;26.348;2022-11-06T11:12:53;16.07;;;7.63;;
34565;SDS011;20803;42.676;26.348;2022-11-06T11:15:21;16.50;;;7.67;;
34565;SDS011;20803;42.676;26.348;2022-11-06T11:20:33;12.57;;;6.97;;
34565;SDS011;20803;42.676;26.348;2022-11-06T11:23:04;15.87;;;7.13;;
34565;SDS011;20803;42.676;26.348;2022-11-06T11:25:39;16.10;;;7.57;;
34565;SDS011;20803;42.676;26.348;2022-11-06T11:28:10;16.80;;;7.37;;
34565;SDS011;20803;42.676;26.348;2022-11-06T11:31:03;12.93;;;6.67;;
34565;SDS011;20803;42.676;26.348;2022-11-06T11:33:31;12.20;;;7.70;;
34565;SDS011;20803;42.676;26.348;2022-11-06T11:35:57;12.93;;;6.60;;
34565;SDS011;20803;42.676;26.348;2022-11-06T11:38:24;16.43;;;7.10;;
34565;SDS011;20803;42.676;26.348;2022-11-06T11:40:50;14.03;;;7.43;;
34565;SDS011;20803;42.676;26.348;2022-11-06T11:43:23;10.73;;;6.43;;
34565;SDS011;20803;42.676;26.348;2022-11-06T11:48:39;11.10;;;6.80;;
34565;SDS011;20803;42.676;26.348;2022-11-06T11:51:11;11.83;;;7.10;;
34565;SDS011;20803;42.676;26.348;2022-11-06T11:53:42;12.13;;;6.17;;
34565;SDS011;20803;42.676;26.348;2022-11-06T11:56:12;12.37;;;6.93;;
34565;SDS011;20803;42.676;26.348;2022-11-06T11:58:40;13.93;;;7.53;;
34565;SDS011;20803;42.676;26.348;2022-11-06T12:01:13;15.40;;;7.20;;
34565;SDS011;20803;42.676;26.348;2022-11-06T12:03:41;16.80;;;8.60;;
34565;SDS011;20803;42.676;26.348;2022-11-06T12:06:11;16.10;;;7.50;;
34565;SDS011;20803;42.676;26.348;2022-11-06T12:08:40;10.80;;;6.93;;
34565;SDS011;20803;42.676;26.348;2022-11-06T12:11:12;18.70;;;7.40;;
34565;SDS011;20803;42.676;26.348;2022-11-06T12:13:43;14.30;;;7.70;;
34565;SDS011;20803;42.676;26.348;2022-11-06T12:16:17;16.13;;;7.03;;
34565;SDS011;20803;42.676;26.348;2022-11-06T12:18:45;16.10;;;8.60;;
34565;SDS011;20803;42.676;26.348;2022-11-06T12:21:23;19.07;;;9.60;;
34565;SDS011;20803;42.676;26.348;2022-11-06T12:34:06;22.73;;;10.40;;
34565;SDS011;20803;42.676;26.348;2022-11-06T12:36:39;16.23;;;9.93;;
34565;SDS011;20803;42.676;26.348;2022-11-06T12:39:15;19.90;;;10.70;;
34565;SDS011;20803;42.676;26.348;2022-11-06T12:41:47;22.73;;;11.57;;
34565;SDS011;20803;42.676;26.348;2022-11-06T12:44:16;19.30;;;11.03;;
34565;SDS011;20803;42.676;26.348;2022-11-06T12:49:51;20.33;;;10.73;;
34565;SDS011;20803;42.676;26.348;2022-11-06T12:57:52;15.63;;;9.50;;
34565;SDS011;20803;42.676;26.348;2022-11-06T13:01:01;13.40;;;8.77;;
34565;SDS011;20803;42.676;26.348;2022-11-06T13:03:42;16.53;;;9.03;;
34565;SDS011;20803;42.676;26.348;2022-11-06T13:06:24;15.97;;;8.53;;
34565;SDS011;20803;42.676;26.348;2022-11-06T13:12:02;14.83;;;9.37;;
34565;SDS011;20803;42.676;26.348;2022-11-06T13:14:58;18.33;;;9.30;;
34565;SDS011;20803;42.676;26.348;2022-11-06T13:17:32;23.83;;;11.13;;
34565;SDS011;20803;42.676;26.348;2022-11-06T13:25:25;26.47;;;14.63;;
34565;SDS011;20803;42.676;26.348;2022-11-06T13:30:57;28.20;;;14.17;;
34565;SDS011;20803;42.676;26.348;2022-11-06T13:33:49;26.33;;;15.33;;
34565;SDS011;20803;42.676;26.348;2022-11-06T13:36:20;26.20;;;14.47;;
34565;SDS011;20803;42.676;26.348;2022-11-06T13:38:54;23.47;;;14.20;;
34565;SDS011;20803;42.676;26.348;2022-11-06T13:41:27;28.80;;;14.90;;
34565;SDS011;20803;42.676;26.348;2022-11-06T13:49:04;23.30;;;14.17;;
34565;SDS011;20803;42.676;26.348;2022-11-06T13:51:50;25.50;;;14.07;;
34565;SDS011;20803;42.676;26.348;2022-11-06T13:57:06;25.00;;;14.10;;
34565;SDS011;20803;42.676;26.348;2022-11-06T14:02:41;25.83;;;14.53;;
34565;SDS011;20803;42.676;26.348;2022-11-06T14:08:18;28.53;;;13.20;;
34565;SDS011;20803;42.676;26.348;2022-11-06T14:10:51;33.80;;;14.20;;
34565;SDS011;20803;42.676;26.348;2022-11-06T14:13:27;19.67;;;12.93;;
34565;SDS011;20803;42.676;26.348;2022-11-06T14:16:02;26.03;;;12.77;;
34565;SDS011;20803;42.676;26.348;2022-11-06T14:19:02;19.83;;;12.77;;
34565;SDS011;20803;42.676;26.348;2022-11-06T14:24:16;30.70;;;13.07;;
34565;SDS011;20803;42.676;26.348;2022-11-06T14:26:45;21.20;;;11.17;;
34565;SDS011;20803;42.676;26.348;2022-11-06T14:34:59;21.63;;;11.93;;
34565;SDS011;20803;42.676;26.348;2022-11-06T14:38:12;26.87;;;12.47;;
34565;SDS011;20803;42.676;26.348;2022-11-06T14:40:41;20.67;;;11.53;;
34565;SDS011;20803;42.676;26.348;2022-11-06T14:43:15;23.70;;;12.50;;
34565;SDS011;20803;42.676;26.348;2022-11-06T14:45:58;19.17;;;11.47;;
34565;SDS011;20803;42.676;26.348;2022-11-06T14:48:25;22.63;;;12.03;;
34565;SDS011;20803;42.676;26.348;2022-11-06T14:50:57;24.43;;;11.83;;
34565;SDS011;20803;42.676;26.348;2022-11-06T14:53:26;24.50;;;11.17;;
34565;SDS011;20803;42.676;26.348;2022-11-06T14:55:57;25.27;;;12.47;;
34565;SDS011;20803;42.676;26.348;2022-11-06T14:58:25;23.47;;;13.03;;
34565;SDS011;20803;42.676;26.348;2022-11-06T15:01:15;26.23;;;12.23;;
34565;SDS011;20803;42.676;26.348;2022-11-06T15:08:54;29.80;;;12.30;;
34565;SDS011;20803;42.676;26.348;2022-11-06T15:16:38;26.97;;;11.30;;
34565;SDS011;20803;42.676;26.348;2022-11-06T15:19:13;27.77;;;13.63;;
34565;SDS011;20803;42.676;26.348;2022-11-06T15:21:42;21.37;;;11.07;;
34565;SDS011;20803;42.676;26.348;2022-11-06T15:24:14;19.43;;;11.47;;
34565;SDS011;20803;42.676;26.348;2022-11-06T15:26:44;24.03;;;12.53;;
34565;SDS011;20803;42.676;26.348;2022-11-06T15:31:39;23.47;;;12.50;;
34565;SDS011;20803;42.676;26.348;2022-11-06T15:34:11;18.27;;;11.23;;
34565;SDS011;20803;42.676;26.348;2022-11-06T15:36:56;29.60;;;10.67;;
34565;SDS011;20803;42.676;26.348;2022-11-06T15:39:40;28.57;;;12.40;;
34565;SDS011;20803;42.676;26.348;2022-11-06T15:42:22;21.60;;;10.90;;
34565;SDS011;20803;42.676;26.348;2022-11-06T15:44:51;22.50;;;10.50;;
34565;SDS011;20803;42.676;26.348;2022-11-06T15:47:31;23.87;;;12.43;;
34565;SDS011;20803;42.676;26.348;2022-11-06T15:50:15;24.40;;;10.93;;
34565;SDS011;20803;42.676;26.348;2022-11-06T15:52:43;34.10;;;12.57;;
34565;SDS011;20803;42.676;26.348;2022-11-06T15:57:52;20.47;;;12.33;;
34565;SDS011;20803;42.676;26.348;2022-11-06T16:00:19;21.00;;;12.03;;
34565;SDS011;20803;42.676;26.348;2022-11-06T16:05:24;22.23;;;10.33;;
34565;SDS011;20803;42.676;26.348;2022-11-06T16:07:52;18.80;;;9.97;;
34565;SDS011;20803;42.676;26.348;2022-11-06T16:10:19;26.60;;;11.53;;
34565;SDS011;20803;42.676;26.348;2022-11-06T16:12:46;22.73;;;10.83;;
34565;SDS011;20803;42.676;26.348;2022-11-06T16:20:39;19.60;;;11.67;;
34565;SDS011;20803;42.676;26.348;2022-11-06T16:23:07;22.57;;;11.60;;
34565;SDS011;20803;42.676;26.348;2022-11-06T16:25:37;30.07;;;12.33;;
34565;SDS011;20803;42.676;26.348;2022-11-06T16:28:03;21.67;;;11.87;;
34565;SDS011;20803;42.676;26.348;2022-11-06T16:30:28;17.93;;;11.80;;
34565;SDS011;20803;42.676;26.348;2022-11-06T16:32:57;21.03;;;12.23;;
34565;SDS011;20803;42.676;26.348;2022-11-06T16:35:30;23.67;;;13.00;;
34565;SDS011;20803;42.676;26.348;2022-11-06T16:38:12;19.17;;;11.20;;
34565;SDS011;20803;42.676;26.348;2022-11-06T16:40:53;24.17;;;11.97;;
34565;SDS011;20803;42.676;26.348;2022-11-06T16:43:20;29.07;;;12.37;;
34565;SDS011;20803;42.676;26.348;2022-11-06T16:48:23;18.37;;;11.23;;
34565;SDS011;20803;42.676;26.348;2022-11-06T16:50:51;18.37;;;10.67;;
34565;SDS011;20803;42.676;26.348;2022-11-06T16:53:20;22.17;;;9.83;;
34565;SDS011;20803;42.676;26.348;2022-11-06T16:55:52;25.67;;;11.40;;
34565;SDS011;20803;42.676;26.348;2022-11-06T16:58:19;22.27;;;12.83;;
34565;SDS011;20803;42.676;26.348;2022-11-06T17:00:47;27.50;;;15.47;;
34565;SDS011;20803;42.676;26.348;2022-11-06T17:03:22;30.97;;;19.17;;
34565;SDS011;20803;42.676;26.348;2022-11-06T17:05:53;34.40;;;18.83;;
34565;SDS011;20803;42.676;26.348;2022-11-06T17:10:48;25.80;;;15.23;;